KBFF/BFF METAR and TAF weather

Enter ICAO airport designator
Station Type Date Time Source
KBFF METAR 2020/09/19 04:53 UTC NOAA

KBFF 190453Z AUTO 12008KT 9SM CLR 17/11 A3006 RMK AO2 SLP147 T01670106


Station Type Date Time Source
KBFF Decoded METAR 2020/09/19 04:53 UTC NOAA

SCOTTSBLUFF HEILIG FIELD, NE, United States (KBFF) 41-52N 103-36W 1203M
Sep 19, 2020 - 12:53 AM EDT / 2020.09.19 0453 UTC
Wind: from the ESE (120 degrees) at 9 MPH (8 KT):0
Visibility: 9 mile(s):0
Sky conditions: clear
Temperature: 62.1 F (16.7 C)
Dew Point: 51.1 F (10.6 C)
Relative Humidity: 67%
Pressure (altimeter): 30.06 in. Hg (1017 hPa)
ob: KBFF 190453Z AUTO 12008KT 9SM CLR 17/11 A3006 RMK AO2 SLP147 T01670106
cycle: 5

Station Type Date Time Source
KBFF TAF 2020/09/18 18:24 UTC NOAA

TAF KBFF 181720Z 1818/1918 13008KT 6SM HZ SKC
FM181900 15013G21KT 6SM HZ SKC
FM190000 13007KT 6SM HZ SCT250

Example: see airport list